createdAt,value
2022-12-18T00:00:54.686Z,47.25
2022-12-18T00:03:24.575Z,43.80
2022-12-18T00:05:55.808Z,44.08
2022-12-18T00:08:25.750Z,45.35
2022-12-18T00:10:55.660Z,41.90
2022-12-18T00:13:32.948Z,44.30
2022-12-18T00:16:06.208Z,45.60
2022-12-18T00:18:36.650Z,44.90
2022-12-18T00:21:09.144Z,43.88
2022-12-18T00:23:40.871Z,45.97
2022-12-18T00:26:14.783Z,44.70
2022-12-18T00:28:48.140Z,44.95
2022-12-18T00:31:20.091Z,45.25
2022-12-18T00:33:53.983Z,44.03
2022-12-18T00:36:27.300Z,44.97
2022-12-18T00:38:58.381Z,45.40
2022-12-18T00:41:41.697Z,43.45
2022-12-18T00:44:16.349Z,43.78
2022-12-18T00:46:46.676Z,45.85
2022-12-18T00:49:16.557Z,45.38
2022-12-18T00:51:46.949Z,46.05
2022-12-18T00:54:17.082Z,43.35
2022-12-18T00:56:50.208Z,46.42
2022-12-18T00:59:23.096Z,44.95
2022-12-18T01:01:53.065Z,46.40
2022-12-18T01:04:23.000Z,47.72
2022-12-18T01:06:52.807Z,48.47
2022-12-18T01:09:22.569Z,45.60
2022-12-18T01:11:52.378Z,46.38
2022-12-18T01:14:24.884Z,45.97
2022-12-18T01:16:54.716Z,45.92
2022-12-18T01:19:24.844Z,46.25
2022-12-18T01:21:54.864Z,46.05
2022-12-18T01:24:24.860Z,48.08
2022-12-18T01:26:54.797Z,46.20
2022-12-18T01:29:27.263Z,46.00
2022-12-18T01:31:59.214Z,46.72
2022-12-18T01:34:29.130Z,47.60
2022-12-18T01:36:59.048Z,46.00
2022-12-18T01:39:29.562Z,45.92
2022-12-18T01:42:05.505Z,45.58
2022-12-18T01:45:01.200Z,45.92
2022-12-18T01:47:35.776Z,46.65
2022-12-18T01:50:10.673Z,45.95
2022-12-18T01:52:43.259Z,45.10
2022-12-18T01:55:17.832Z,46.13
2022-12-18T01:57:47.864Z,42.70
2022-12-18T02:00:23.552Z,43.97
2022-12-18T02:02:54.038Z,45.00
2022-12-18T02:05:32.906Z,44.95
2022-12-18T02:08:12.408Z,42.75
2022-12-18T02:10:50.469Z,43.60
2022-12-18T02:13:27.796Z,41.95
2022-12-18T02:16:06.544Z,42.30
2022-12-18T02:18:39.585Z,42.22
2022-12-18T02:21:21.662Z,42.60
2022-12-18T02:23:59.994Z,43.05
2022-12-18T02:26:38.933Z,40.50
2022-12-18T02:29:14.016Z,40.65
2022-12-18T02:31:49.477Z,40.10
2022-12-18T02:34:21.198Z,38.95
2022-12-18T02:36:53.921Z,40.25
2022-12-18T02:39:25.673Z,42.05
2022-12-18T02:41:58.285Z,38.80
2022-12-18T02:44:28.200Z,39.28
2022-12-18T02:46:58.333Z,39.38
2022-12-18T02:49:38.195Z,39.97
2022-12-18T02:52:17.510Z,37.40
2022-12-18T02:55:01.372Z,37.92
2022-12-18T02:57:39.082Z,36.92
2022-12-18T03:00:14.815Z,37.47
2022-12-18T03:02:51.313Z,37.70
2022-12-18T03:05:24.932Z,39.60
2022-12-18T03:08:02.597Z,38.65
2022-12-18T03:10:36.067Z,37.53
2022-12-18T03:13:12.619Z,37.20
2022-12-18T03:15:49.455Z,36.92
2022-12-18T03:18:23.637Z,34.95
2022-12-18T03:20:54.967Z,36.67
2022-12-18T03:23:28.072Z,36.58
2022-12-18T03:26:07.325Z,38.10
2022-12-18T03:28:43.443Z,37.45
2022-12-18T03:31:16.846Z,37.13
2022-12-18T03:33:50.929Z,36.60
2022-12-18T03:36:21.432Z,38.20
2022-12-18T03:38:51.436Z,37.53
2022-12-18T03:41:29.541Z,33.58
2022-12-18T03:44:07.827Z,36.88
2022-12-18T03:46:47.241Z,35.80
2022-12-18T03:49:25.513Z,35.58
2022-12-18T03:52:06.601Z,33.70
2022-12-18T03:54:38.260Z,34.08
2022-12-18T03:57:13.514Z,34.63
2022-12-18T03:59:48.925Z,35.15
2022-12-18T04:02:20.402Z,35.55
2022-12-18T04:04:51.629Z,33.60
2022-12-18T04:07:22.288Z,32.85
2022-12-18T04:09:55.510Z,32.08
2022-12-18T04:12:27.509Z,34.90
2022-12-18T04:15:00.066Z,31.92
2022-12-18T04:17:29.996Z,32.20
2022-12-18T04:19:59.851Z,32.78
2022-12-18T04:22:29.793Z,33.30
2022-12-18T04:24:59.651Z,33.00
2022-12-18T04:27:29.445Z,33.47
2022-12-18T04:30:02.350Z,31.42
2022-12-18T04:32:32.200Z,33.85
2022-12-18T04:35:02.118Z,34.25
2022-12-18T04:37:31.930Z,33.53
2022-12-18T04:40:01.789Z,33.38
2022-12-18T04:42:31.795Z,32.20
2022-12-18T04:45:04.324Z,33.60
2022-12-18T04:47:34.837Z,33.38
2022-12-18T04:50:04.738Z,33.05
2022-12-18T04:52:34.592Z,30.15
2022-12-18T04:55:04.397Z,32.17
2022-12-18T04:57:34.288Z,31.85
2022-12-18T05:00:08.741Z,32.45
2022-12-18T05:02:38.702Z,30.90
2022-12-18T05:05:09.861Z,30.98
2022-12-18T05:07:42.804Z,31.17
2022-12-18T05:10:13.364Z,31.67
2022-12-18T05:12:59.036Z,32.40
2022-12-18T05:15:35.749Z,32.88
2022-12-18T05:18:06.347Z,31.98
2022-12-18T05:20:36.173Z,35.08
2022-12-18T05:23:06.044Z,31.42
2022-12-18T05:25:35.909Z,31.67
2022-12-18T05:28:06.085Z,33.47
2022-12-18T05:30:38.564Z,32.38
2022-12-18T05:33:08.356Z,31.67
2022-12-18T05:35:38.193Z,33.25
2022-12-18T05:38:07.993Z,32.30
2022-12-18T05:40:37.856Z,32.28
2022-12-18T05:43:07.828Z,33.65
2022-12-18T05:45:40.903Z,33.38
2022-12-18T05:48:11.745Z,32.70
2022-12-18T05:50:42.596Z,31.58
2022-12-18T05:53:12.609Z,33.33
2022-12-18T05:55:43.860Z,32.33
2022-12-18T05:58:15.365Z,33.15
2022-12-18T06:00:49.901Z,34.13
2022-12-18T06:03:19.849Z,33.15
2022-12-18T06:05:49.798Z,32.63
2022-12-18T06:08:19.680Z,33.10
2022-12-18T06:10:55.481Z,32.17
2022-12-18T06:13:25.608Z,30.90
2022-12-18T06:15:58.094Z,31.33
2022-12-18T06:18:27.910Z,32.53
2022-12-18T06:21:01.187Z,31.65
2022-12-18T06:23:31.223Z,32.25
2022-12-18T06:26:01.133Z,32.15
2022-12-18T06:28:30.951Z,31.67
2022-12-18T06:31:03.513Z,30.27
2022-12-18T06:33:33.457Z,33.75
2022-12-18T06:36:05.189Z,31.52
2022-12-18T06:38:35.736Z,32.53
2022-12-18T06:41:10.647Z,30.80
2022-12-18T06:43:41.351Z,29.70
2022-12-18T06:46:14.679Z,31.67
2022-12-18T06:48:44.651Z,30.10
2022-12-18T06:51:14.609Z,29.75
2022-12-18T06:53:44.448Z,30.65
2022-12-18T06:56:14.362Z,30.83
2022-12-18T06:58:44.814Z,30.05
2022-12-18T07:01:17.589Z,31.02
2022-12-18T07:03:47.557Z,32.28
2022-12-18T07:06:18.813Z,31.50
2022-12-18T07:08:48.819Z,30.73
2022-12-18T07:11:19.695Z,30.98
2022-12-18T07:13:50.453Z,30.67
2022-12-18T07:16:25.884Z,30.25
2022-12-18T07:18:56.467Z,31.38
2022-12-18T07:21:27.406Z,30.35
2022-12-18T07:23:57.561Z,32.08
2022-12-18T07:26:27.412Z,30.25
2022-12-18T07:29:02.293Z,29.75
2022-12-18T07:31:34.832Z,31.15
2022-12-18T07:34:04.673Z,28.95
2022-12-18T07:36:34.522Z,29.55
2022-12-18T07:39:04.408Z,28.90
2022-12-18T07:41:34.250Z,29.55
2022-12-18T07:44:04.196Z,29.33
2022-12-18T07:46:36.675Z,28.67
2022-12-18T07:49:06.637Z,29.33
2022-12-18T07:51:36.527Z,29.73
2022-12-18T07:54:06.597Z,28.10
2022-12-18T07:56:36.405Z,29.10
2022-12-18T07:59:06.201Z,27.52
2022-12-18T08:01:38.744Z,28.90
2022-12-18T08:04:08.638Z,30.08
2022-12-18T08:06:38.697Z,29.48
2022-12-18T08:09:09.917Z,28.38
2022-12-18T08:11:39.918Z,28.40
2022-12-18T08:14:09.807Z,30.55
2022-12-18T08:16:42.372Z,28.73
2022-12-18T08:19:15.317Z,29.35
2022-12-18T08:21:45.158Z,29.42
2022-12-18T08:24:14.986Z,28.42
2022-12-18T08:27:00.893Z,28.48
2022-12-18T08:29:34.786Z,29.83
2022-12-18T08:32:07.799Z,31.33
2022-12-18T08:34:37.957Z,28.65
2022-12-18T08:37:07.858Z,28.90
2022-12-18T08:39:37.816Z,30.33
2022-12-18T08:42:20.405Z,29.77
2022-12-18T08:44:50.381Z,29.25
2022-12-18T08:47:22.920Z,29.02
2022-12-18T08:49:52.765Z,28.50
2022-12-18T08:52:22.812Z,29.05
2022-12-18T08:54:52.627Z,28.45
2022-12-18T08:57:22.457Z,28.83
2022-12-18T08:59:52.544Z,29.40
2022-12-18T09:02:25.153Z,28.15
2022-12-18T09:04:57.621Z,28.38
2022-12-18T09:07:27.761Z,30.08
2022-12-18T09:09:57.639Z,29.85
2022-12-18T09:12:27.589Z,28.48
2022-12-18T09:14:57.479Z,29.40
2022-12-18T09:17:29.994Z,30.02
2022-12-18T09:19:59.846Z,28.52
2022-12-18T09:22:29.797Z,27.88
2022-12-18T09:24:59.653Z,28.90
2022-12-18T09:27:29.603Z,30.70
2022-12-18T09:29:59.465Z,27.70
2022-12-18T09:32:31.881Z,29.73
2022-12-18T09:35:02.596Z,29.58
2022-12-18T09:37:32.430Z,28.92
2022-12-18T09:40:02.451Z,28.95
2022-12-18T09:42:32.410Z,28.33
2022-12-18T09:45:03.375Z,28.75
2022-12-18T09:47:39.972Z,29.35
2022-12-18T09:50:27.664Z,28.50
2022-12-18T09:53:00.208Z,29.00
2022-12-18T09:55:37.463Z,27.55
2022-12-18T09:58:16.927Z,26.63
2022-12-18T10:00:47.150Z,27.05
2022-12-18T10:03:19.878Z,28.35
2022-12-18T10:06:02.522Z,27.88
2022-12-18T10:08:43.531Z,27.80
2022-12-18T10:11:32.043Z,26.38
2022-12-18T10:14:10.087Z,27.35
2022-12-18T10:16:50.458Z,27.35
2022-12-18T10:19:35.248Z,26.13
2022-12-18T10:22:12.003Z,28.63
2022-12-18T10:24:48.885Z,25.67
2022-12-18T10:27:20.306Z,27.35
2022-12-18T10:29:50.549Z,26.83
2022-12-18T10:32:23.223Z,25.63
2022-12-18T10:35:00.417Z,27.98
2022-12-18T10:37:33.377Z,26.58
2022-12-18T10:40:22.230Z,26.95
2022-12-18T10:43:07.831Z,27.67
2022-12-18T10:45:37.800Z,24.40
2022-12-18T10:48:08.281Z,24.83
2022-12-18T10:51:09.612Z,27.15
2022-12-18T10:53:33.480Z,25.55
2022-12-18T10:56:04.418Z,26.33
2022-12-18T10:58:36.131Z,25.90
2022-12-18T11:01:14.703Z,24.70
2022-12-18T11:03:46.608Z,24.88
2022-12-18T11:06:21.234Z,26.35
2022-12-18T11:09:06.565Z,24.67
2022-12-18T11:11:40.997Z,24.15
2022-12-18T11:14:20.273Z,25.05
2022-12-18T11:19:43.471Z,22.55
2022-12-18T11:22:27.532Z,23.92
2022-12-18T11:27:58.758Z,24.45
2022-12-18T11:30:32.208Z,24.95
2022-12-18T11:33:07.690Z,24.20
2022-12-18T11:35:43.798Z,23.58
2022-12-18T11:38:27.470Z,24.75
2022-12-18T11:41:03.047Z,23.55
2022-12-18T11:43:35.798Z,25.40
2022-12-18T11:46:16.111Z,23.23
2022-12-18T11:48:53.669Z,24.15
2022-12-18T11:51:30.544Z,26.13
2022-12-18T11:54:04.116Z,24.00
2022-12-18T11:56:39.480Z,23.75
2022-12-18T11:59:19.382Z,23.27
2022-12-18T12:01:55.618Z,23.80
2022-12-18T12:04:49.615Z,23.88
2022-12-18T12:10:07.344Z,24.50
2022-12-18T12:12:54.746Z,24.40
2022-12-18T12:15:33.677Z,23.70
2022-12-18T12:18:11.812Z,25.23
2022-12-18T12:20:51.902Z,22.45
2022-12-18T12:23:34.834Z,24.63
2022-12-18T12:26:11.186Z,23.58
2022-12-18T12:28:56.374Z,22.65
2022-12-18T12:31:36.484Z,23.13
2022-12-18T12:34:18.719Z,23.38
2022-12-18T12:37:11.549Z,23.30
2022-12-18T12:39:43.934Z,21.05
2022-12-18T12:42:38.185Z,22.17
2022-12-18T12:45:17.558Z,23.67
2022-12-18T12:47:50.371Z,23.77
2022-12-18T12:50:23.722Z,23.65
2022-12-18T12:52:56.703Z,24.55
2022-12-18T12:55:28.799Z,24.17
2022-12-18T12:58:11.995Z,25.08
2022-12-18T13:00:48.167Z,24.38
2022-12-18T13:03:35.769Z,23.25
2022-12-18T13:06:13.305Z,22.77
2022-12-18T13:08:58.377Z,22.48
2022-12-18T13:11:56.298Z,23.08
2022-12-18T13:14:35.669Z,22.77
2022-12-18T13:17:30.450Z,23.13
2022-12-18T13:20:15.605Z,23.20
2022-12-18T13:22:49.655Z,22.42
2022-12-18T13:25:34.463Z,22.50
2022-12-18T13:28:15.917Z,22.80
2022-12-18T13:31:03.547Z,23.25
2022-12-18T13:34:16.976Z,22.48
2022-12-18T13:36:38.144Z,21.60
2022-12-18T13:39:36.062Z,22.10
2022-12-18T13:42:49.340Z,22.08
2022-12-18T13:45:46.144Z,23.13
2022-12-18T13:48:26.326Z,22.73
2022-12-18T13:51:06.700Z,22.50
2022-12-18T13:53:45.789Z,22.77
2022-12-18T13:56:20.355Z,22.85
2022-12-18T13:59:14.650Z,22.90
2022-12-18T14:01:50.011Z,21.42
2022-12-18T14:04:30.992Z,21.23
2022-12-18T14:07:05.413Z,23.33
2022-12-18T14:12:29.870Z,21.80
2022-12-18T14:14:59.807Z,21.75
2022-12-18T14:17:30.289Z,23.17
2022-12-18T14:20:04.236Z,23.33
2022-12-18T14:22:34.860Z,23.98
2022-12-18T14:25:21.437Z,23.20
2022-12-18T14:27:53.501Z,23.85
2022-12-18T14:30:31.599Z,23.30
2022-12-18T14:33:06.519Z,24.58
2022-12-18T14:35:41.316Z,22.70
2022-12-18T14:38:26.253Z,23.85
2022-12-18T14:40:57.285Z,24.55
2022-12-18T14:43:27.103Z,25.38
2022-12-18T14:45:58.008Z,25.50
2022-12-18T14:48:40.521Z,26.70
2022-12-18T14:51:21.036Z,24.17
2022-12-18T14:53:54.693Z,25.95
2022-12-18T14:56:26.683Z,26.42
2022-12-18T14:58:59.170Z,24.95
2022-12-18T15:01:31.919Z,26.25
2022-12-18T15:04:04.010Z,25.33
2022-12-18T15:06:40.886Z,23.80
2022-12-18T15:09:26.414Z,24.60
2022-12-18T15:12:00.138Z,25.02
2022-12-18T15:14:38.749Z,24.75
2022-12-18T15:17:17.999Z,24.73
2022-12-18T15:19:49.284Z,25.70
2022-12-18T15:22:28.343Z,25.77
2022-12-18T15:24:59.377Z,27.20
2022-12-18T15:27:38.636Z,25.80
2022-12-18T15:30:26.397Z,26.92
2022-12-18T15:33:16.751Z,25.85
2022-12-18T15:35:47.247Z,27.52
2022-12-18T15:38:19.774Z,27.08
2022-12-18T15:40:49.541Z,27.90
2022-12-18T15:43:31.854Z,27.10
2022-12-18T15:46:01.654Z,27.75
2022-12-18T15:48:31.984Z,25.10
2022-12-18T15:51:01.969Z,27.65
2022-12-18T15:53:36.752Z,27.73
2022-12-18T15:56:23.506Z,26.23
2022-12-18T15:58:54.791Z,27.38
2022-12-18T16:01:26.704Z,26.13
2022-12-18T16:03:57.054Z,23.92
2022-12-18T16:06:30.491Z,24.13
2022-12-18T16:09:09.035Z,23.45
2022-12-18T16:11:44.098Z,24.48
2022-12-18T16:14:20.609Z,23.40
2022-12-18T16:16:52.610Z,24.52
2022-12-18T16:19:24.121Z,24.48
2022-12-18T16:21:55.700Z,24.80
2022-12-18T16:24:30.443Z,24.15
2022-12-18T16:27:01.437Z,23.98
2022-12-18T16:29:32.397Z,24.60
2022-12-18T16:32:03.829Z,22.95
2022-12-18T16:34:36.066Z,22.40
2022-12-18T16:37:08.463Z,24.10
2022-12-18T16:39:41.860Z,23.23
2022-12-18T16:42:17.410Z,24.27
2022-12-18T16:44:48.437Z,24.35
2022-12-18T16:47:18.354Z,23.42
2022-12-18T16:49:51.684Z,24.25
2022-12-18T16:52:22.005Z,23.80
2022-12-18T16:54:54.485Z,23.60
2022-12-18T16:57:25.482Z,22.60
2022-12-18T16:59:58.743Z,23.52
2022-12-18T17:02:33.053Z,22.45
2022-12-18T17:05:03.360Z,24.02
2022-12-18T17:07:33.137Z,23.50
2022-12-18T17:10:07.821Z,22.50
2022-12-18T17:12:37.926Z,22.52
2022-12-18T17:15:09.034Z,23.35
2022-12-18T17:17:38.837Z,22.95
2022-12-18T17:20:09.126Z,22.65
2022-12-18T17:22:38.983Z,22.38
2022-12-18T17:25:12.513Z,22.33
2022-12-18T17:27:42.419Z,22.80
2022-12-18T17:30:14.025Z,23.30
2022-12-18T17:32:43.833Z,21.95
2022-12-18T17:35:13.583Z,21.95
2022-12-18T17:37:43.338Z,20.92
2022-12-18T17:40:15.945Z,22.38
2022-12-18T17:42:48.106Z,20.58
2022-12-18T17:45:18.056Z,21.38
2022-12-18T17:47:47.901Z,22.40
2022-12-18T17:50:17.921Z,21.23
2022-12-18T17:52:47.722Z,21.25
2022-12-18T17:55:20.070Z,21.15
2022-12-18T17:57:49.860Z,23.38
2022-12-18T18:00:20.367Z,17.83
2022-12-18T18:02:50.259Z,21.85
2022-12-18T18:05:20.172Z,20.73
2022-12-18T18:07:49.989Z,20.65
2022-12-18T18:10:24.268Z,21.25
2022-12-18T18:13:06.580Z,19.65
2022-12-18T18:15:42.367Z,20.67
2022-12-18T18:18:12.168Z,19.20
2022-12-18T18:20:44.860Z,21.50
2022-12-18T18:23:14.693Z,19.80
2022-12-18T18:25:47.082Z,20.83
2022-12-18T18:28:16.902Z,21.67
2022-12-18T18:30:46.847Z,23.30
2022-12-18T18:33:16.593Z,21.73
2022-12-18T18:35:54.706Z,19.08
2022-12-18T18:38:24.845Z,22.08
2022-12-18T18:41:04.770Z,21.70
2022-12-18T18:43:34.988Z,21.77
2022-12-18T18:46:07.527Z,21.50
2022-12-18T18:48:42.367Z,20.08
2022-12-18T18:51:21.106Z,21.42
2022-12-18T18:53:53.257Z,20.88
2022-12-18T18:56:56.172Z,19.85
2022-12-18T18:59:18.179Z,18.40
2022-12-18T19:01:48.242Z,19.45
2022-12-18T19:04:18.117Z,20.52
2022-12-18T19:06:49.104Z,19.42
2022-12-18T19:09:19.561Z,19.63
2022-12-18T19:12:15.665Z,19.13
2022-12-18T19:14:45.899Z,20.42
2022-12-18T19:17:15.673Z,18.25
2022-12-18T19:19:45.544Z,20.23
2022-12-18T19:22:15.474Z,20.10
2022-12-18T19:24:45.977Z,18.92
2022-12-18T19:27:18.363Z,19.17
2022-12-18T19:29:48.145Z,19.73
2022-12-18T19:32:18.003Z,20.77
2022-12-18T19:34:48.070Z,18.15
2022-12-18T19:37:18.472Z,19.10
2022-12-18T19:39:48.413Z,20.60
2022-12-18T19:42:26.269Z,18.15
2022-12-18T19:44:59.317Z,19.38
2022-12-18T19:47:36.308Z,18.55
2022-12-18T19:50:06.448Z,20.15
2022-12-18T19:52:36.368Z,20.13
2022-12-18T19:55:07.405Z,20.00
2022-12-18T19:57:39.777Z,18.92
2022-12-18T20:00:16.895Z,19.55
2022-12-18T20:02:48.481Z,19.38
2022-12-18T20:05:24.986Z,19.45
2022-12-18T20:07:55.154Z,18.63
2022-12-18T20:10:24.941Z,18.70
2022-12-18T20:12:57.282Z,19.27
2022-12-18T20:15:27.668Z,20.25
2022-12-18T20:17:57.405Z,21.33
2022-12-18T20:20:27.524Z,20.00
2022-12-18T20:22:57.804Z,20.10
2022-12-18T20:25:27.583Z,19.67
2022-12-18T20:28:00.014Z,19.38
2022-12-18T20:30:30.004Z,19.88
2022-12-18T20:32:59.833Z,19.13
2022-12-18T20:35:32.085Z,17.23
2022-12-18T20:38:02.458Z,19.38
2022-12-18T20:40:33.028Z,18.02
2022-12-18T20:43:07.101Z,18.48
2022-12-18T20:45:37.256Z,19.13
2022-12-18T20:48:09.363Z,19.75
2022-12-18T20:50:39.101Z,20.20
2022-12-18T20:53:09.043Z,17.73
2022-12-18T20:55:43.437Z,20.02
2022-12-18T21:00:45.418Z,18.38
2022-12-18T21:03:15.814Z,18.77
2022-12-18T21:05:45.616Z,19.63
2022-12-18T21:08:15.419Z,18.10
2022-12-18T21:10:45.245Z,18.00
2022-12-18T21:13:15.232Z,18.70
2022-12-18T21:15:46.973Z,18.60
2022-12-18T21:18:16.727Z,18.42
2022-12-18T21:20:46.690Z,18.65
2022-12-18T21:23:17.055Z,18.67
2022-12-18T21:25:48.344Z,19.02
2022-12-18T21:28:25.505Z,17.83
2022-12-18T21:30:55.560Z,18.38
2022-12-18T21:33:25.360Z,20.17
2022-12-18T21:35:55.202Z,19.55
2022-12-18T21:38:26.020Z,18.38
2022-12-18T21:40:55.876Z,20.05
2022-12-18T21:43:40.844Z,19.83
2022-12-18T21:46:10.775Z,19.80
2022-12-18T21:48:43.463Z,19.13
2022-12-18T21:51:13.343Z,19.77
2022-12-18T21:53:43.208Z,20.65
2022-12-18T21:56:13.129Z,20.15
2022-12-18T21:58:55.439Z,18.23
2022-12-18T22:01:36.604Z,21.33
2022-12-18T22:04:07.747Z,20.13
2022-12-18T22:06:37.811Z,20.70
2022-12-18T22:09:08.740Z,20.60
2022-12-18T22:11:38.645Z,21.67
2022-12-18T22:14:11.708Z,20.40
2022-12-18T22:16:41.774Z,20.20
2022-12-18T22:19:13.087Z,18.67
2022-12-18T22:21:46.649Z,21.15
2022-12-18T22:24:18.744Z,20.00
2022-12-18T22:26:49.922Z,20.40
2022-12-18T22:29:36.391Z,22.63
2022-12-18T22:32:06.847Z,21.73
2022-12-18T22:34:37.052Z,21.17
2022-12-18T22:37:07.146Z,20.70
2022-12-18T22:39:36.964Z,20.45
2022-12-18T22:42:09.697Z,20.42
2022-12-18T22:44:42.103Z,22.00
2022-12-18T22:47:15.553Z,20.55
2022-12-18T22:49:45.417Z,19.00
2022-12-18T22:52:15.438Z,18.50
2022-12-18T22:54:48.321Z,19.15
2022-12-18T22:57:18.105Z,19.23
2022-12-18T22:59:50.490Z,19.70
2022-12-18T23:02:20.552Z,19.27
2022-12-18T23:04:50.444Z,18.80
2022-12-18T23:07:20.626Z,20.67
2022-12-18T23:09:50.619Z,20.13
2022-12-18T23:12:23.553Z,18.60
2022-12-18T23:14:56.114Z,18.77
2022-12-18T23:17:25.952Z,20.40
2022-12-18T23:19:55.759Z,18.52
2022-12-18T23:22:25.548Z,18.90
2022-12-18T23:24:55.328Z,19.00
2022-12-18T23:27:25.121Z,19.10
2022-12-18T23:29:57.452Z,18.25
2022-12-18T23:32:28.689Z,19.35
2022-12-18T23:34:58.504Z,18.67
2022-12-18T23:37:56.925Z,17.90
2022-12-18T23:40:21.112Z,17.58
2022-12-18T23:42:50.874Z,18.23
2022-12-18T23:45:23.248Z,17.92
2022-12-18T23:47:53.078Z,18.60
2022-12-18T23:50:28.989Z,18.27
2022-12-18T23:53:05.572Z,17.92
2022-12-18T23:55:40.158Z,18.98
2022-12-18T23:58:11.053Z,19.63
